Time;durP1;ratioP1;P1;durP2;ratioP2;P2;SDS_P1;SDS_P2;PMS_P1;PMS_P2;Temp;Humidity;BMP_temperature;BMP_pressure;BME280_temperature;BME280_humidity;BME280_pressure;Samples;Min_cycle;Max_cycle;Signal;HPM_P1;HPM_P2
2022/12/02 00:01:59;;;;;;;159.50;56.03;;;1.70;99.90;;;;;;4991342;28;20027;-51
2022/12/02 00:04:25;;;;;;;;;;;1.80;99.90;;;;;;4991987;28;20491;-50
2022/12/02 00:06:54;;;;;;;153.07;51.28;;;1.70;99.90;;;;;;4991755;28;19912;-50
2022/12/02 00:09:34;;;;;;;161.85;55.03;;;1.70;99.90;;;;;;4989742;28;20142;-47
2022/12/02 00:12:11;;;;;;;155.35;54.63;;;1.70;99.90;;;;;;4991437;28;20407;-51
2022/12/02 00:14:38;;;;;;;150.25;55.05;;;1.70;99.90;;;;;;4991245;28;20041;-50
2022/12/02 00:17:04;;;;;;;152.73;53.00;;;1.70;99.90;;;;;;4991539;28;20026;-47
2022/12/02 00:19:29;;;;;;;143.10;53.67;;;1.70;99.90;;;;;;4991216;28;20031;-47
2022/12/02 00:21:55;;;;;;;162.52;54.00;;;1.70;99.90;;;;;;4992242;28;20096;-47
2022/12/02 00:24:20;;;;;;;153.95;54.92;;;1.70;99.90;;;;;;4991757;28;20022;-49
2022/12/02 00:26:46;;;;;;;155.48;55.95;;;1.70;99.90;;;;;;4991672;28;20026;-50
2022/12/02 00:29:12;;;;;;;158.15;55.22;;;1.70;99.90;;;;;;4990873;28;20526;-47
2022/12/02 00:31:38;;;;;;;150.85;53.38;;;1.70;99.90;;;;;;4991085;28;20038;-47
2022/12/02 00:34:04;;;;;;;153.55;55.30;;;1.70;99.90;;;;;;4990882;28;20034;-47
2022/12/02 00:36:30;;;;;;;143.73;52.83;;;1.70;99.90;;;;;;4991146;28;20461;-50
2022/12/02 00:38:56;;;;;;;148.30;52.00;;;1.70;99.90;;;;;;4990975;28;20030;-51
2022/12/02 00:41:22;;;;;;;135.48;51.45;;;1.70;99.90;;;;;;4990655;28;20022;-48
2022/12/02 00:46:33;;;;;;;135.88;48.63;;;1.70;99.90;;;;;;4991547;28;20053;-51
2022/12/02 00:49:03;;;;;;;161.98;55.95;;;1.70;99.90;;;;;;4991140;28;20499;-49
2022/12/02 00:51:29;;;;;;;135.45;51.40;;;1.70;99.90;;;;;;4990468;28;20033;-49
2022/12/02 00:53:54;;;;;;;158.98;54.17;;;1.80;99.90;;;;;;4991255;28;20030;-50
2022/12/02 00:56:20;;;;;;;145.82;52.03;;;1.80;99.90;;;;;;4990005;28;20501;-49
2022/12/02 00:58:45;;;;;;;150.60;50.75;;;1.70;99.90;;;;;;4990299;28;20037;-49
2022/12/02 01:01:11;;;;;;;133.07;49.45;;;1.80;99.90;;;;;;4990093;28;20092;-48
2022/12/02 01:03:37;;;;;;;139.75;51.92;;;1.80;99.90;;;;;;4990622;28;20041;-47
2022/12/02 01:06:02;;;;;;;148.23;52.28;;;1.80;99.90;;;;;;4991057;28;20029;-48
2022/12/02 01:08:28;;;;;;;139.88;52.95;;;1.80;99.90;;;;;;4990671;28;20038;-47
2022/12/02 01:10:54;;;;;;;141.95;51.58;;;1.80;99.90;;;;;;4988562;28;20027;-48
2022/12/02 01:13:21;;;;;;;153.63;53.63;;;1.70;99.90;;;;;;4990715;28;20053;-49
2022/12/02 01:15:46;;;;;;;141.88;51.63;;;1.70;99.90;;;;;;4990407;28;20035;-51
2022/12/02 01:18:11;;;;;;;140.45;52.92;;;1.70;99.90;;;;;;4990784;28;20023;-49
2022/12/02 01:20:37;;;;;;;150.55;52.97;;;1.70;99.90;;;;;;4989831;28;20038;-50
2022/12/02 01:23:03;;;;;;;152.82;53.47;;;1.80;99.90;;;;;;4990164;28;20495;-49
2022/12/02 01:25:28;;;;;;;141.80;52.30;;;1.80;99.90;;;;;;4988781;28;20108;-51
2022/12/02 01:27:54;;;;;;;142.57;52.58;;;1.70;99.90;;;;;;4990261;28;20037;-48
2022/12/02 01:30:19;;;;;;;134.18;50.55;;;1.70;99.90;;;;;;4989824;28;20075;-47
2022/12/02 01:32:45;;;;;;;130.88;49.97;;;1.70;99.90;;;;;;4990270;28;20373;-51
2022/12/02 01:35:10;;;;;;;139.35;50.50;;;1.70;99.90;;;;;;4990062;28;20030;-50
2022/12/02 01:37:36;;;;;;;143.80;49.83;;;1.70;99.90;;;;;;4989882;28;20041;-48
2022/12/02 01:40:03;;;;;;;137.15;51.95;;;1.60;99.90;;;;;;4989276;28;20120;-48
2022/12/02 01:42:28;;;;;;;137.90;48.80;;;1.60;99.90;;;;;;4989948;28;20138;-49
2022/12/02 01:44:54;;;;;;;130.40;50.28;;;1.70;99.90;;;;;;4989962;28;20721;-47
2022/12/02 01:47:19;;;;;;;139.02;51.53;;;1.70;99.90;;;;;;4989901;28;20034;-50
2022/12/02 01:49:45;;;;;;;135.95;49.67;;;1.70;99.90;;;;;;4989248;28;20089;-50
2022/12/02 01:52:11;;;;;;;131.00;47.22;;;1.70;99.90;;;;;;4989610;28;20034;-48
2022/12/02 01:54:36;;;;;;;126.78;47.88;;;1.70;99.90;;;;;;4990328;28;20387;-48
2022/12/02 01:57:03;;;;;;;121.45;49.17;;;1.70;99.90;;;;;;4989597;28;20041;-48
2022/12/02 01:59:29;;;;;;;126.75;46.45;;;1.70;99.90;;;;;;4988956;28;20031;-47
2022/12/02 02:01:54;;;;;;;127.15;47.05;;;1.70;99.90;;;;;;4989833;28;20034;-48
2022/12/02 02:04:19;;;;;;;126.15;47.88;;;1.70;99.90;;;;;;4989606;28;20053;-48
2022/12/02 02:06:46;;;;;;;129.77;45.67;;;1.70;99.90;;;;;;4989545;28;20022;-49
2022/12/02 02:09:12;;;;;;;130.63;48.78;;;1.70;99.90;;;;;;4987988;28;20034;-49
2022/12/02 02:11:40;;;;;;;139.90;49.80;;;1.60;99.90;;;;;;4989836;28;20069;-50
2022/12/02 02:14:08;;;;;;;120.43;45.00;;;1.60;99.90;;;;;;4989703;28;20404;-48
2022/12/02 02:16:33;;;;;;;125.25;48.72;;;1.60;99.90;;;;;;4989570;28;20550;-46
2022/12/02 02:19:00;;;;;;;127.15;48.35;;;1.50;99.90;;;;;;4988010;28;20077;-46
2022/12/02 02:21:33;;;;;;;123.63;49.38;;;1.50;99.90;;;;;;4987788;28;20062;-48
2022/12/02 02:23:58;;;;;;;116.57;47.67;;;1.60;99.90;;;;;;4987982;28;20395;-48
2022/12/02 02:26:24;;;;;;;121.80;48.70;;;1.60;99.90;;;;;;4989298;28;20026;-46
2022/12/02 02:28:50;;;;;;;133.35;48.90;;;1.50;99.90;;;;;;4989277;28;20041;-47
2022/12/02 02:31:15;;;;;;;130.43;48.08;;;1.50;99.90;;;;;;4988728;28;20121;-47
2022/12/02 02:33:41;;;;;;;137.43;50.10;;;1.50;99.90;;;;;;4988975;28;20177;-48
2022/12/02 02:36:07;;;;;;;131.25;49.08;;;1.50;99.90;;;;;;4989141;28;20038;-48
2022/12/02 02:38:35;;;;;;;125.63;47.15;;;1.50;99.90;;;;;;5000241;28;20357;-46
2022/12/02 02:41:01;;;;;;;128.93;48.65;;;1.60;99.90;;;;;;5006670;28;20018;-48
2022/12/02 02:43:28;;;;;;;118.50;45.47;;;1.60;99.90;;;;;;5008410;28;20026;-49
2022/12/02 02:45:54;;;;;;;131.70;48.60;;;1.50;99.90;;;;;;5008127;28;20116;-48
2022/12/02 02:48:21;;;;;;;130.63;48.20;;;1.60;99.90;;;;;;5008659;28;20029;-48
2022/12/02 02:50:48;;;;;;;131.00;47.50;;;1.50;99.90;;;;;;5007415;28;20313;-50
2022/12/02 02:53:15;;;;;;;117.80;45.53;;;1.50;99.90;;;;;;5008344;28;20111;-50
2022/12/02 02:55:41;;;;;;;128.85;47.20;;;1.50;99.90;;;;;;5006906;28;20042;-50
2022/12/02 02:58:20;;;;;;;125.82;46.30;;;1.50;99.90;;;;;;5008587;28;20129;-46
2022/12/02 03:00:59;;;;;;;123.70;47.38;;;1.50;99.90;;;;;;5007931;28;20348;-46
2022/12/02 03:03:28;;;;;;;116.45;45.42;;;1.60;99.90;;;;;;5006184;28;20051;-50
2022/12/02 03:05:54;;;;;;;117.95;44.78;;;1.50;99.90;;;;;;5008209;28;20089;-48
2022/12/02 03:08:22;;;;;;;127.78;49.75;;;1.50;99.90;;;;;;5008163;28;20242;-49
2022/12/02 03:10:49;;;;;;;115.05;42.65;;;1.50;99.90;;;;;;5007697;28;20030;-47
2022/12/02 03:13:14;;;;;;;127.50;49.35;;;1.50;99.90;;;;;;5008391;28;20037;-48
2022/12/02 03:15:40;;;;;;;119.80;44.83;;;1.50;99.90;;;;;;5008340;28;20428;-47
2022/12/02 03:18:06;;;;;;;126.38;47.10;;;1.50;99.90;;;;;;5007817;28;20053;-50
2022/12/02 03:20:32;;;;;;;125.70;47.55;;;1.50;99.90;;;;;;5009679;28;20022;-50
2022/12/02 03:22:58;;;;;;;132.70;49.20;;;1.50;99.90;;;;;;5011761;28;20092;-47
2022/12/02 03:25:24;;;;;;;119.65;46.45;;;1.50;99.90;;;;;;5011530;28;20024;-48
2022/12/02 03:27:49;;;;;;;120.35;45.38;;;1.60;99.90;;;;;;5011569;28;20519;-47
2022/12/02 03:30:15;;;;;;;122.18;45.53;;;1.50;99.90;;;;;;5009986;28;20053;-48
2022/12/02 03:32:40;;;;;;;113.72;42.83;;;1.50;99.90;;;;;;5012461;28;20032;-46
2022/12/02 03:35:06;;;;;;;113.75;44.30;;;1.50;99.90;;;;;;5010597;28;20081;-48
2022/12/02 03:37:32;;;;;;;120.43;46.47;;;1.50;99.90;;;;;;5011969;28;20105;-50
2022/12/02 03:39:58;;;;;;;123.88;48.42;;;1.50;99.90;;;;;;5011599;28;20033;-46
2022/12/02 03:42:25;;;;;;;113.07;45.83;;;1.50;99.90;;;;;;5011800;28;20018;-47
2022/12/02 03:44:50;;;;;;;117.78;45.78;;;1.50;99.90;;;;;;5012042;28;20030;-50
2022/12/02 03:47:16;;;;;;;118.03;47.90;;;1.50;99.90;;;;;;5011952;28;20479;-49
2022/12/02 03:49:43;;;;;;;123.57;46.88;;;1.50;99.90;;;;;;5011491;28;20502;-48
2022/12/02 03:52:09;;;;;;;114.40;45.72;;;1.50;99.90;;;;;;5011805;28;20026;-47
2022/12/02 03:54:35;;;;;;;116.60;47.42;;;1.50;99.90;;;;;;5011420;28;20485;-48
2022/12/02 03:57:04;;;;;;;121.18;47.40;;;1.50;99.90;;;;;;5011282;28;20034;-49
2022/12/02 03:59:30;;;;;;;107.53;43.72;;;1.50;99.90;;;;;;5010742;28;20034;-49
2022/12/02 04:01:55;;;;;;;110.68;44.53;;;1.50;99.90;;;;;;5010055;28;20026;-48
2022/12/02 04:04:21;;;;;;;112.63;42.95;;;1.60;99.90;;;;;;5010386;28;20045;-48
2022/12/02 04:06:46;;;;;;;112.50;43.78;;;1.50;99.90;;;;;;5011630;28;20230;-49
2022/12/02 04:09:12;;;;;;;110.93;45.33;;;1.60;99.90;;;;;;5010994;28;20029;-49
2022/12/02 04:11:37;;;;;;;106.40;41.85;;;1.60;99.90;;;;;;5011108;28;20443;-47
2022/12/02 04:14:03;;;;;;;109.30;44.15;;;1.60;99.90;;;;;;5011237;28;20109;-50
2022/12/02 04:16:28;;;;;;;117.18;46.85;;;1.60;99.90;;;;;;5011259;28;20076;-46
2022/12/02 04:18:54;;;;;;;106.68;43.05;;;1.60;99.90;;;;;;5010970;28;20092;-48
2022/12/02 04:21:20;;;;;;;112.15;45.55;;;1.60;99.90;;;;;;5010781;28;20026;-48
2022/12/02 04:23:46;;;;;;;110.55;45.80;;;1.60;99.90;;;;;;5010955;28;20021;-46
2022/12/02 04:26:11;;;;;;;112.32;45.60;;;1.60;99.90;;;;;;5010554;28;20506;-48
2022/12/02 04:28:37;;;;;;;108.72;42.72;;;1.50;99.90;;;;;;5010807;28;20128;-48
2022/12/02 04:31:02;;;;;;;102.20;42.92;;;1.50;99.90;;;;;;5010021;28;20093;-47
2022/12/02 04:33:28;;;;;;;100.30;40.75;;;1.50;99.90;;;;;;5009986;28;20112;-47
2022/12/02 04:35:53;;;;;;;110.82;44.33;;;1.50;99.90;;;;;;5009034;28;20478;-50
2022/12/02 04:38:19;;;;;;;109.93;44.35;;;1.50;99.90;;;;;;5010424;28;20419;-47
2022/12/02 04:40:44;;;;;;;107.43;42.13;;;1.50;99.90;;;;;;5010095;28;20030;-47
2022/12/02 04:43:10;;;;;;;105.43;42.63;;;1.50;99.90;;;;;;5010598;28;20050;-48
2022/12/02 04:45:35;;;;;;;105.28;42.03;;;1.50;99.90;;;;;;5010349;28;20501;-48
2022/12/02 04:48:01;;;;;;;106.20;42.25;;;1.50;99.90;;;;;;5010454;28;20057;-48
2022/12/02 04:50:26;;;;;;;101.20;41.53;;;1.50;99.90;;;;;;5009830;28;20354;-51
2022/12/02 04:52:52;;;;;;;110.65;43.45;;;1.40;99.90;;;;;;5010383;28;20022;-48
2022/12/02 04:55:17;;;;;;;105.68;43.60;;;1.40;99.90;;;;;;5010061;28;20030;-48
2022/12/02 04:57:43;;;;;;;98.95;41.42;;;1.50;99.90;;;;;;5010129;28;20072;-49
2022/12/02 05:00:09;;;;;;;101.53;40.65;;;1.50;99.90;;;;;;5009739;28;20368;-46
2022/12/02 05:02:35;;;;;;;101.22;41.63;;;1.50;99.90;;;;;;5008650;28;20034;-48
2022/12/02 05:05:00;;;;;;;107.45;42.38;;;1.50;99.90;;;;;;5010417;28;20069;-49
2022/12/02 05:07:26;;;;;;;108.40;43.05;;;1.50;99.90;;;;;;5010252;28;20395;-47
2022/12/02 05:09:51;;;;;;;94.03;39.35;;;1.50;99.90;;;;;;5009657;28;20076;-48
2022/12/02 05:12:17;;;;;;;99.68;40.03;;;1.40;99.90;;;;;;5009977;28;20044;-49
2022/12/02 05:14:42;;;;;;;97.15;39.35;;;1.50;99.90;;;;;;5010335;28;20029;-49
2022/12/02 05:17:08;;;;;;;99.25;39.35;;;1.50;99.90;;;;;;5008985;28;20395;-48
2022/12/02 05:19:33;;;;;;;100.63;43.22;;;1.50;99.90;;;;;;5009341;28;20369;-47
2022/12/02 05:21:59;;;;;;;92.90;39.63;;;1.50;99.90;;;;;;5009732;28;20040;-48
2022/12/02 05:24:24;;;;;;;95.88;38.13;;;1.40;99.90;;;;;;5009664;28;20468;-49
2022/12/02 05:26:50;;;;;;;101.97;40.83;;;1.50;99.90;;;;;;5009581;28;20037;-48
2022/12/02 05:29:15;;;;;;;101.75;41.72;;;1.40;99.90;;;;;;5008018;28;20032;-49
2022/12/02 05:31:41;;;;;;;96.28;39.95;;;1.40;99.90;;;;;;5009435;28;20037;-49
2022/12/02 05:34:06;;;;;;;95.78;41.05;;;1.40;99.90;;;;;;5008578;28;20040;-50
2022/12/02 05:36:32;;;;;;;98.00;40.47;;;1.40;99.90;;;;;;5009367;28;20029;-47
2022/12/02 05:38:57;;;;;;;100.85;40.28;;;1.40;99.90;;;;;;5008119;28;20065;-48
2022/12/02 05:41:23;;;;;;;101.10;41.25;;;1.40;99.90;;;;;;5008995;28;20200;-48
2022/12/02 05:43:48;;;;;;;96.35;39.33;;;1.50;99.90;;;;;;5009212;28;20026;-47
2022/12/02 05:46:16;;;;;;;103.20;40.67;;;1.50;99.90;;;;;;5008924;28;20070;-50
2022/12/02 05:48:42;;;;;;;99.40;43.17;;;1.50;99.90;;;;;;5009464;28;20399;-47
2022/12/02 05:51:11;;;;;;;99.07;39.80;;;1.50;99.90;;;;;;5009349;28;20029;-49
2022/12/02 05:53:40;;;;;;;95.80;39.45;;;1.50;99.90;;;;;;5009602;28;20021;-48
2022/12/02 05:56:09;;;;;;;95.75;39.05;;;1.50;99.90;;;;;;5009545;28;20037;-50
2022/12/02 05:58:35;;;;;;;99.90;41.33;;;1.50;99.90;;;;;;5008281;28;20042;-46
2022/12/02 06:01:00;;;;;;;105.47;42.72;;;1.40;99.90;;;;;;5009129;28;20310;-48
2022/12/02 06:03:26;;;;;;;104.80;41.30;;;1.40;99.90;;;;;;5009322;28;20109;-46
2022/12/02 06:05:52;;;;;;;103.65;40.95;;;1.50;99.90;;;;;;5009297;28;20476;-46
2022/12/02 06:08:21;;;;;;;89.03;39.20;;;1.40;99.90;;;;;;5009040;28;20022;-47
2022/12/02 06:10:50;;;;;;;87.82;39.78;;;1.40;99.90;;;;;;5008786;28;20407;-49
2022/12/02 06:13:26;;;;;;;93.18;40.75;;;1.40;99.90;;;;;;5008921;28;20033;-47
2022/12/02 06:15:53;;;;;;;94.65;38.92;;;1.50;99.90;;;;;;5006393;28;20026;-50
2022/12/02 06:18:26;;;;;;;93.03;40.28;;;1.40;99.90;;;;;;5008986;28;20018;-47
2022/12/02 06:20:59;;;;;;;102.90;42.00;;;1.50;99.90;;;;;;5008640;28;20058;-46
2022/12/02 06:23:26;;;;;;;95.20;39.75;;;1.40;99.90;;;;;;5009029;28;20096;-47
2022/12/02 06:25:53;;;;;;;100.13;40.65;;;1.50;99.90;;;;;;5009085;28;20030;-49
2022/12/02 06:28:22;;;;;;;96.97;38.95;;;1.40;99.90;;;;;;5009469;28;20024;-49
2022/12/02 06:30:48;;;;;;;104.93;41.22;;;1.40;99.90;;;;;;5008532;28;20030;-48
2022/12/02 06:33:50;;;;;;;101.85;41.08;;;1.40;99.90;;;;;;5106318;27;20675;-47
2022/12/02 06:36:24;;;;;;;90.90;38.63;;;1.50;99.90;;;;;;5106311;28;20385;-46
2022/12/02 06:38:55;;;;;;;105.18;41.45;;;1.50;99.90;;;;;;5106342;28;20020;-49
2022/12/02 06:41:22;;;;;;;;;;;1.40;99.90;;;;;;5106821;28;20055;-49
2022/12/02 06:46:34;;;;;;;93.22;39.08;;;1.50;99.90;;;;;;5106928;28;20480;-49
2022/12/02 06:51:44;;;;;;;81.55;36.03;;;1.50;99.90;;;;;;5066162;28;20411;-46
2022/12/02 06:54:22;;;;;;;90.97;39.58;;;1.60;99.90;;;;;;5066067;28;20017;-47
2022/12/02 06:56:49;;;;;;;89.57;38.13;;;1.60;99.90;;;;;;5066660;28;20409;-48
2022/12/02 06:59:20;;;;;;;85.30;37.83;;;1.60;99.90;;;;;;5066579;28;20017;-48
2022/12/02 07:01:46;;;;;;;89.63;38.13;;;1.50;99.90;;;;;;5066954;28;20074;-47
2022/12/02 07:04:34;;;;;;;86.10;36.83;;;1.50;99.90;;;;;;5066870;28;20029;-49
2022/12/02 07:07:12;;;;;;;83.65;37.85;;;1.40;99.90;;;;;;5064194;28;20027;-50
2022/12/02 07:09:41;;;;;;;83.28;35.22;;;1.50;99.90;;;;;;5064093;28;20119;-48
2022/12/02 10:45:17;;;;;;;65.25;31.08;;;2.30;99.90;;;;;;5085479;27;20147;-41
2022/12/02 10:47:43;;;;;;;59.65;28.27;;;2.30;99.90;;;;;;5083832;28;20055;-41
2022/12/02 10:50:35;;;;;;;66.25;30.95;;;2.30;99.90;;;;;;5084820;28;20484;-42
2022/12/02 10:53:01;;;;;;;56.58;29.77;;;2.30;99.90;;;;;;5083960;28;20040;-42
2022/12/02 10:55:27;;;;;;;63.97;30.27;;;2.30;99.90;;;;;;5084913;28;20405;-42
2022/12/02 10:57:54;;;;;;;62.95;30.88;;;2.30;99.90;;;;;;5084783;28;20099;-44
2022/12/02 11:00:25;;;;;;;59.70;29.33;;;2.40;99.90;;;;;;5084268;28;20032;-42
2022/12/02 11:02:54;;;;;;;63.05;29.35;;;2.50;99.90;;;;;;5085105;28;20107;-42
2022/12/02 11:05:21;;;;;;;60.55;31.15;;;2.40;99.90;;;;;;5084728;28;20095;-43
2022/12/02 11:07:54;;;;;;;55.22;28.13;;;2.40;99.90;;;;;;5083273;28;20035;-43
2022/12/02 11:10:23;;;;;;;55.95;28.63;;;2.50;99.90;;;;;;5084204;28;20039;-42
2022/12/02 11:12:51;;;;;;;59.60;30.23;;;2.50;99.90;;;;;;5083985;28;20024;-42
2022/12/02 11:16:00;;;;;;;60.33;30.45;;;2.50;99.90;;;;;;5082791;28;20032;-42
2022/12/02 11:18:28;;;;;;;60.55;30.13;;;2.50;99.90;;;;;;5075778;28;20499;-42
2022/12/02 11:21:00;;;;;;;60.28;29.20;;;2.50;99.90;;;;;;5084579;28;20035;-42
2022/12/02 11:23:27;;;;;;;59.22;30.83;;;2.50;99.90;;;;;;5082430;28;20035;-42
2022/12/02 11:25:59;;;;;;;57.25;29.65;;;2.40;99.90;;;;;;5084563;28;20396;-41
2022/12/02 11:28:27;;;;;;;60.30;30.23;;;2.40;99.90;;;;;;5084414;28;20127;-42
2022/12/02 11:31:24;;;;;;;64.57;31.35;;;2.40;99.90;;;;;;5082893;28;20487;-42
2022/12/02 11:33:49;;;;;;;61.65;31.30;;;2.40;99.90;;;;;;5084357;28;20447;-42
2022/12/02 11:36:28;;;;;;;69.45;31.02;;;2.40;99.90;;;;;;5083951;28;20512;-42
2022/12/02 11:38:54;;;;;;;61.30;30.48;;;2.40;99.90;;;;;;5084293;28;20320;-49
2022/12/02 11:41:21;;;;;;;66.43;31.05;;;2.40;99.90;;;;;;5083862;28;20032;-41
2022/12/02 11:43:46;;;;;;;67.03;31.83;;;2.30;99.90;;;;;;5095936;28;20061;-41
2022/12/02 11:46:17;;;;;;;63.63;31.95;;;2.30;99.90;;;;;;5104359;28;20506;-41
2022/12/02 11:48:52;;;;;;;67.10;32.88;;;2.30;99.90;;;;;;5104107;28;20024;-41
2022/12/02 11:51:39;;;;;;;66.70;30.50;;;2.40;99.90;;;;;;5101658;28;20396;-40
2022/12/02 11:54:12;;;;;;;60.67;30.15;;;2.50;99.90;;;;;;5102729;28;20031;-41
2022/12/02 11:56:38;;;;;;;66.45;32.95;;;2.50;99.90;;;;;;5090572;28;20093;-41
2022/12/02 11:59:25;;;;;;;64.22;31.15;;;2.50;99.90;;;;;;5090470;28;20115;-41
2022/12/02 12:02:05;;;;;;;70.22;31.98;;;2.60;99.90;;;;;;5091101;28;20111;-40
2022/12/02 12:04:30;;;;;;;73.18;34.53;;;2.60;99.90;;;;;;5090146;28;20313;-41
2022/12/02 12:06:58;;;;;;;67.03;32.70;;;2.50;99.90;;;;;;5091194;28;20472;-42
2022/12/02 12:09:27;;;;;;;68.78;31.08;;;2.50;99.90;;;;;;5070531;28;20078;-42
2022/12/02 12:12:13;;;;;;;71.25;30.70;;;2.50;99.90;;;;;;5071321;28;20032;-40
2022/12/02 12:14:57;;;;;;;67.10;31.02;;;2.50;99.90;;;;;;5071704;28;20024;-40
2022/12/02 12:17:42;;;;;;;64.88;29.42;;;2.50;99.90;;;;;;5052860;28;20017;-40
2022/12/02 12:20:14;;;;;;;65.97;30.73;;;2.60;99.90;;;;;;5071872;28;20059;-40
2022/12/02 12:22:40;;;;;;;62.58;30.05;;;2.60;99.90;;;;;;5091063;28;20628;-41
2022/12/02 12:25:30;;;;;;;74.25;31.23;;;2.50;99.90;;;;;;5073013;28;20101;-40
2022/12/02 12:27:55;;;;;;;68.88;33.10;;;2.50;99.90;;;;;;5073281;28;20046;-40
2022/12/02 12:30:21;;;;;;;62.60;29.38;;;2.50;99.90;;;;;;5090305;28;20016;-40
2022/12/02 12:32:47;;;;;;;66.85;30.70;;;2.50;99.90;;;;;;5090983;28;20024;-40
2022/12/02 12:35:12;;;;;;;63.25;28.98;;;2.50;99.90;;;;;;5072455;28;20442;-40
2022/12/02 12:37:38;;;;;;;71.30;31.00;;;2.50;99.90;;;;;;5072739;28;20274;-40
2022/12/02 12:40:04;;;;;;;67.25;31.13;;;2.50;99.90;;;;;;5090409;28;20032;-41
2022/12/02 12:42:30;;;;;;;55.85;28.40;;;2.50;99.90;;;;;;5072175;28;20035;-41
2022/12/02 12:44:56;;;;;;;67.05;29.85;;;2.60;99.90;;;;;;5073085;28;20476;-41
2022/12/02 12:47:21;;;;;;;61.15;27.83;;;2.60;99.90;;;;;;5072822;28;20107;-41
2022/12/02 12:49:47;;;;;;;55.20;27.15;;;2.60;99.90;;;;;;5090419;28;20125;-41
2022/12/02 12:52:12;;;;;;;59.03;28.42;;;2.50;99.90;;;;;;5090920;28;20027;-41
2022/12/02 12:54:38;;;;;;;58.55;27.40;;;2.50;99.90;;;;;;5091225;28;20051;-41
2022/12/02 12:57:04;;;;;;;50.65;26.52;;;2.40;99.90;;;;;;5072633;28;20044;-41
2022/12/02 12:59:29;;;;;;;54.97;27.00;;;2.50;99.90;;;;;;5071872;28;20028;-41
2022/12/02 13:01:55;;;;;;;58.22;27.50;;;2.50;99.90;;;;;;5072622;28;20024;-41
2022/12/02 13:04:20;;;;;;;58.92;26.40;;;2.50;99.90;;;;;;5090527;28;20024;-41
2022/12/02 13:06:46;;;;;;;57.97;26.40;;;2.50;99.90;;;;;;5089811;28;20020;-41
2022/12/02 13:09:13;;;;;;;52.00;26.35;;;2.50;99.90;;;;;;5090261;28;20077;-41
2022/12/02 13:11:39;;;;;;;59.17;28.35;;;2.50;99.90;;;;;;5090447;28;20027;-41
2022/12/02 13:14:05;;;;;;;65.95;32.13;;;2.40;99.90;;;;;;5072233;28;20432;-40
2022/12/02 13:16:31;;;;;;;65.47;29.58;;;2.40;99.90;;;;;;5072141;28;20536;-41
2022/12/02 13:18:56;;;;;;;60.65;29.17;;;2.30;99.90;;;;;;5090692;28;20024;-41
2022/12/02 13:21:22;;;;;;;58.63;27.50;;;2.30;99.90;;;;;;5071855;28;20110;-41
2022/12/02 13:23:47;;;;;;;64.78;29.25;;;2.30;99.90;;;;;;5072124;28;20111;-41
2022/12/02 13:26:13;;;;;;;65.20;29.45;;;2.30;99.90;;;;;;5090514;28;20122;-40
2022/12/02 13:28:39;;;;;;;71.28;30.45;;;2.30;99.90;;;;;;5090660;28;20078;-41
2022/12/02 13:31:04;;;;;;;63.85;29.77;;;2.30;99.90;;;;;;5089774;28;20350;-41
2022/12/02 13:33:30;;;;;;;60.65;28.58;;;2.30;99.90;;;;;;5090004;28;20096;-41
2022/12/02 13:35:56;;;;;;;61.88;28.15;;;2.30;99.90;;;;;;5090168;28;20028;-41
2022/12/02 13:38:21;;;;;;;62.58;28.90;;;2.40;99.90;;;;;;5089863;28;20023;-41
2022/12/02 13:40:47;;;;;;;68.38;30.52;;;2.30;99.90;;;;;;5089387;28;20024;-41
2022/12/02 13:43:13;;;;;;;67.53;29.15;;;2.30;99.90;;;;;;5089738;28;20055;-41
2022/12/02 13:45:40;;;;;;;60.63;28.38;;;2.20;99.90;;;;;;5089906;28;20396;-41
2022/12/02 13:48:05;;;;;;;65.93;29.27;;;2.30;99.90;;;;;;5089695;28;20051;-41
2022/12/02 13:50:31;;;;;;;61.03;28.02;;;2.20;99.90;;;;;;5088998;28;20447;-41
2022/12/02 13:52:57;;;;;;;64.43;29.10;;;2.20;99.90;;;;;;5071262;28;20028;-41
2022/12/02 13:55:23;;;;;;;65.57;29.98;;;2.20;99.90;;;;;;5089340;28;20423;-40
2022/12/02 13:57:49;;;;;;;64.82;28.25;;;2.20;99.90;;;;;;5071231;28;20115;-41
2022/12/02 14:00:15;;;;;;;63.88;27.85;;;2.20;99.90;;;;;;5069995;28;20024;-42
2022/12/02 14:02:41;;;;;;;67.97;30.00;;;2.20;99.90;;;;;;5086608;28;20373;-42
2022/12/02 14:05:07;;;;;;;60.95;28.92;;;2.10;99.90;;;;;;5088466;28;20107;-41
2022/12/02 14:07:33;;;;;;;60.60;28.50;;;2.10;99.90;;;;;;5088272;28;20024;-41
2022/12/02 14:09:58;;;;;;;72.28;28.17;;;2.10;99.90;;;;;;5088111;28;20467;-42
2022/12/02 14:12:24;;;;;;;66.90;28.77;;;2.10;99.90;;;;;;5088016;28;20028;-42
2022/12/02 14:14:50;;;;;;;57.13;27.02;;;2.10;99.90;;;;;;5088137;28;20024;-42
2022/12/02 14:17:18;;;;;;;65.38;30.35;;;2.10;99.90;;;;;;5087952;28;20027;-42
2022/12/02 14:19:44;;;;;;;61.75;28.02;;;2.10;99.90;;;;;;5086006;28;20283;-41
2022/12/02 14:22:09;;;;;;;77.65;31.20;;;2.10;99.90;;;;;;5070067;28;20132;-42
2022/12/02 14:24:34;;;;;;;62.05;29.80;;;2.10;99.90;;;;;;5069447;28;20043;-41
2022/12/02 14:27:00;;;;;;;61.20;28.10;;;2.10;99.90;;;;;;5087703;28;20233;-41
2022/12/02 14:29:26;;;;;;;66.72;29.08;;;2.00;99.90;;;;;;5069374;28;20027;-42
2022/12/02 14:31:51;;;;;;;62.75;30.00;;;2.00;99.90;;;;;;5088014;28;20030;-42
2022/12/02 14:34:17;;;;;;;70.28;31.15;;;2.00;99.90;;;;;;5087920;28;20024;-41
2022/12/02 14:36:43;;;;;;;69.47;31.58;;;2.00;99.90;;;;;;5069567;28;20067;-42
2022/12/02 14:39:09;;;;;;;69.00;30.15;;;2.00;99.90;;;;;;5087644;28;20066;-42
2022/12/02 14:41:35;;;;;;;69.93;30.23;;;2.00;99.90;;;;;;5087871;28;20032;-42
2022/12/02 14:44:00;;;;;;;75.22;31.35;;;2.00;99.90;;;;;;5087644;28;20043;-42
2022/12/02 14:46:29;;;;;;;74.68;31.25;;;2.00;99.90;;;;;;5087742;28;20107;-42
2022/12/02 14:48:55;;;;;;;72.65;30.35;;;2.00;99.90;;;;;;5069742;28;20074;-42
2022/12/02 14:51:20;;;;;;;62.40;28.60;;;2.00;99.90;;;;;;5069134;28;20038;-41
2022/12/02 14:53:46;;;;;;;65.50;29.33;;;2.00;99.90;;;;;;5069549;28;20592;-42
2022/12/02 14:56:12;;;;;;;71.00;31.13;;;1.90;99.90;;;;;;5088014;28;20443;-40
2022/12/02 14:58:37;;;;;;;72.03;29.63;;;1.90;99.90;;;;;;5087846;28;20121;-40
2022/12/02 15:01:03;;;;;;;70.72;27.77;;;1.90;99.90;;;;;;5087000;28;20031;-40
2022/12/02 15:03:28;;;;;;;65.15;29.20;;;1.90;99.90;;;;;;5086475;28;20048;-41
2022/12/02 15:05:54;;;;;;;59.55;27.83;;;1.90;99.90;;;;;;5069522;28;20027;-40
2022/12/02 15:08:20;;;;;;;70.43;29.77;;;1.90;99.90;;;;;;5098852;28;20034;-40
2022/12/02 15:10:45;;;;;;;65.10;28.25;;;1.90;99.90;;;;;;5107088;28;20028;-40
2022/12/02 15:13:11;;;;;;;68.20;29.25;;;1.90;99.90;;;;;;5081425;28;20115;-40
2022/12/02 15:15:36;;;;;;;72.40;27.85;;;1.90;99.90;;;;;;5102266;28;20028;-40
2022/12/02 15:18:02;;;;;;;62.85;27.10;;;1.90;99.90;;;;;;5098067;28;20031;-40
2022/12/02 15:20:28;;;;;;;67.50;29.38;;;1.90;99.90;;;;;;5078219;28;20026;-41
2022/12/02 15:22:53;;;;;;;65.50;28.98;;;1.90;99.90;;;;;;5074763;28;20032;-41
2022/12/02 15:25:19;;;;;;;61.08;27.23;;;1.90;99.90;;;;;;5078086;28;20068;-40
2022/12/02 15:27:44;;;;;;;69.47;31.02;;;1.90;99.90;;;;;;5069106;28;20032;-41
2022/12/02 15:30:11;;;;;;;65.78;28.20;;;1.90;99.90;;;;;;5098611;28;20031;-41
2022/12/02 15:32:40;;;;;;;62.75;27.17;;;1.90;99.90;;;;;;5089737;28;20021;-41
2022/12/02 15:35:08;;;;;;;65.60;29.90;;;1.90;99.90;;;;;;5092798;28;20408;-42
2022/12/02 15:37:33;;;;;;;63.35;28.40;;;1.90;99.90;;;;;;5091815;28;20043;-41
2022/12/02 15:39:59;;;;;;;69.00;28.80;;;1.80;99.90;;;;;;5098518;28;20503;-42
2022/12/02 15:42:24;;;;;;;62.63;28.90;;;1.80;99.90;;;;;;5104397;28;20016;-42
2022/12/02 15:44:50;;;;;;;73.78;30.83;;;1.80;99.90;;;;;;5090855;28;20062;-40
2022/12/02 15:47:16;;;;;;;59.65;28.73;;;1.80;99.90;;;;;;5092271;28;20020;-41
2022/12/02 15:49:41;;;;;;;70.85;29.85;;;1.80;99.90;;;;;;5089559;28;20369;-41
2022/12/02 15:52:07;;;;;;;72.28;29.83;;;1.80;99.90;;;;;;5099792;28;20047;-41
2022/12/02 15:54:33;;;;;;;66.88;31.25;;;1.80;99.90;;;;;;5097264;28;20020;-41
2022/12/02 15:56:58;;;;;;;74.55;31.10;;;1.70;99.90;;;;;;5099141;28;20390;-41
2022/12/02 15:59:25;;;;;;;64.82;27.55;;;1.80;99.90;;;;;;5081034;28;20540;-41
2022/12/02 16:01:50;;;;;;;67.45;30.13;;;1.80;99.90;;;;;;5088597;28;20028;-41
2022/12/02 16:04:16;;;;;;;68.85;30.55;;;1.70;99.90;;;;;;5091930;28;20477;-41
2022/12/02 16:06:42;;;;;;;69.15;30.65;;;1.80;99.90;;;;;;5091088;28;20035;-41
2022/12/02 16:09:07;;;;;;;69.60;31.95;;;1.70;99.90;;;;;;5106633;28;20066;-41
2022/12/02 16:11:33;;;;;;;65.32;29.52;;;1.70;99.90;;;;;;5072032;28;20442;-41
2022/12/02 16:13:59;;;;;;;65.65;30.15;;;1.80;99.90;;;;;;5078230;28;20024;-41
2022/12/02 16:16:24;;;;;;;66.53;27.95;;;1.70;99.90;;;;;;5111205;28;20387;-41